Time;durP1;ratioP1;P1;durP2;ratioP2;P2;SDS_P1;SDS_P2;PMS_P1;PMS_P2;Temp;Humidity;BMP_temperature;BMP_pressure;BME280_temperature;BME280_humidity;BME280_pressure;Samples;Min_cycle;Max_cycle;Signal;HPM_P1;HPM_P2
2023/09/06 00:09:39;;;;;;;4.42;2.90;;;;;;;20.74;60.37;99485.00;7229843;40;20269;31
2023/09/06 00:14:59;;;;;;;5.95;3.58;;;;;;;20.75;60.02;99500.38;7204969;40;20337;31
2023/09/06 00:20:46;;;;;;;;;;;;;;;;;;;;;
2023/09/06 00:26:12;;;;;;;4.28;2.90;;;;;;;20.58;60.21;99491.88;7216881;40;20333;31
2023/09/06 00:31:47;;;;;;;4.25;3.15;;;;;;;20.60;59.37;99493.34;7153611;40;20262;31
2023/09/06 00:37:09;;;;;;;4.30;2.80;;;;;;;20.57;59.34;99496.53;7229048;40;20242;31
2023/09/06 00:42:44;;;;;;;4.70;3.25;;;;;;;20.47;59.57;99490.72;7216173;40;20348;31
2023/09/06 00:48:21;;;;;;;3.40;3.10;;;;;;;20.44;59.06;99485.69;7216343;40;20264;31
2023/09/06 00:53:42;;;;;;;3.90;2.55;;;;;;;20.44;59.68;99491.19;7242529;40;20335;31
2023/09/06 00:59:17;;;;;;;6.55;2.95;;;;;;;20.34;60.09;99479.88;7263630;39;20247;31
2023/09/06 01:04:39;;;;;;;4.35;2.85;;;;;;;20.32;58.72;99475.66;7228827;40;20388;31
2023/09/06 01:10:13;;;;;;;6.45;3.00;;;;;;;20.25;58.46;99475.69;7234035;40;20267;31
2023/09/06 01:15:49;;;;;;;7.03;3.65;;;;;;;20.23;58.01;99470.44;7283959;39;20731;31
2023/09/06 01:21:25;;;;;;;4.75;3.10;;;;;;;20.20;59.06;99468.16;7278959;39;20244;31
2023/09/06 01:27:04;;;;;;;4.50;3.40;;;;;;;20.11;59.43;99464.00;7211258;40;20399;31
2023/09/06 01:32:27;;;;;;;4.30;3.25;;;;;;;20.05;59.41;99464.88;7178997;40;20343;31
2023/09/06 01:37:44;;;;;;;4.00;3.10;;;;;;;19.96;58.87;99468.13;7196771;40;20272;31
2023/09/06 01:48:25;;;;;;;5.26;3.38;;;;;;;19.85;58.59;99466.06;7270950;39;20268;31
2023/09/06 01:58:49;;;;;;;5.30;3.57;;;;;;;19.69;59.99;99468.28;7338403;39;21088;31
2023/09/06 02:04:26;;;;;;;4.53;3.13;;;;;;;19.52;59.78;99464.38;7320009;39;20255;31
2023/09/06 02:09:46;;;;;;;4.00;3.40;;;;;;;19.37;60.90;99461.03;7292203;39;20341;31
2023/09/06 02:15:23;;;;;;;4.70;3.67;;;;;;;19.07;61.31;99465.34;7256072;40;20288;31
2023/09/06 02:26:04;;;;;;;3.75;3.30;;;;;;;18.83;61.84;99464.97;7230205;40;21002;31
2023/09/06 02:31:39;;;;;;;4.97;3.53;;;;;;;18.83;62.04;99469.59;7284315;39;20247;31
2023/09/06 02:36:59;;;;;;;4.64;3.72;;;;;;;18.77;61.42;99470.47;7282531;39;20790;31
2023/09/06 02:42:36;;;;;;;5.25;3.60;;;;;;;18.74;62.63;99477.19;7287093;39;20244;31
2023/09/06 02:47:55;;;;;;;5.57;3.43;;;;;;;18.74;62.17;99481.78;7240413;40;20372;31
2023/09/06 02:53:32;;;;;;;4.20;3.40;;;;;;;18.72;62.01;99483.91;7238487;40;20254;31
2023/09/06 02:59:12;;;;;;;4.95;3.40;;;;;;;18.65;62.41;99483.91;7198563;40;20351;31
2023/09/06 03:04:33;;;;;;;5.00;3.50;;;;;;;18.58;62.73;99480.34;7210266;40;20258;31
2023/09/06 03:10:04;;;;;;;5.13;3.43;;;;;;;18.39;63.86;99472.97;7231230;40;20256;31
2023/09/06 03:15:45;;;;;;;6.15;3.70;;;;;;;18.30;63.52;99474.22;7159980;40;20251;31
2023/09/06 03:21:21;;;;;;;7.30;3.60;;;;;;;18.23;63.78;99473.41;7213595;40;20242;31
2023/09/06 03:26:43;;;;;;;6.90;3.70;;;;;;;18.33;63.42;99482.00;7233065;40;20335;31
2023/09/06 03:32:20;;;;;;;5.80;4.00;;;;;;;18.26;63.81;99494.78;7277828;39;20586;31
2023/09/06 03:37:55;;;;;;;5.10;3.63;;;;;;;18.15;64.33;99484.50;7226014;40;20355;31
2023/09/06 03:43:32;;;;;;;5.80;3.70;;;;;;;18.23;63.81;99493.34;7267768;40;20319;31
2023/09/06 03:49:08;;;;;;;4.35;3.58;;;;;;;18.14;64.36;99485.56;7236315;40;20320;31
2023/09/06 03:54:43;;;;;;;4.70;3.70;;;;;;;18.11;64.03;99488.72;7211698;40;20242;31
2023/09/06 04:00:30;;;;;;;4.80;3.80;;;;;;;18.09;63.87;99490.78;7198212;40;20249;31
2023/09/06 04:06:03;;;;;;;6.37;3.60;;;;;;;18.01;64.80;99481.78;7194848;40;20244;31
2023/09/06 04:11:33;;;;;;;5.07;3.90;;;;;;;18.02;64.43;99494.38;7190798;40;20519;31
2023/09/06 04:22:15;;;;;;;7.00;4.20;;;;;;;17.83;65.20;99492.44;7255532;40;20361;31
2023/09/06 04:32:54;;;;;;;4.70;4.00;;;;;;;17.90;64.91;99506.09;7294616;39;20263;31
2023/09/06 04:38:32;;;;;;;4.87;3.70;;;;;;;17.64;65.81;99511.47;7238400;40;20246;31
2023/09/06 04:43:52;;;;;;;5.23;3.93;;;;;;;17.50;66.05;99521.44;7224073;40;20276;31
2023/09/06 04:54:33;;;;;;;5.50;4.63;;;;;;;17.26;67.68;99513.75;7272305;40;21128;31
2023/09/06 04:59:54;;;;;;;6.03;4.50;;;;;;;17.26;67.91;99511.88;7290979;39;20256;31
2023/09/06 05:05:28;;;;;;;5.93;4.57;;;;;;;17.16;68.02;99519.56;7111614;39;20254;31
2023/09/06 05:11:07;;;;;;;5.60;4.10;;;;;;;17.23;68.84;99520.47;7338414;39;20240;31
2023/09/06 05:16:43;;;;;;;7.15;4.50;;;;;;;17.25;68.98;99515.66;7295578;39;20251;31
2023/09/06 05:22:19;;;;;;;6.40;4.50;;;;;;;17.30;68.06;99525.94;7237539;40;20260;31
2023/09/06 05:27:58;;;;;;;5.80;4.60;;;;;;;17.22;68.61;99518.78;7219013;40;20258;31
2023/09/06 05:33:18;;;;;;;4.50;4.10;;;;;;;17.31;68.51;99530.34;7173092;40;20389;31
2023/09/06 05:38:38;;;;;;;5.80;4.30;;;;;;;17.38;68.41;99532.06;7245462;40;20292;31
2023/09/06 05:44:14;;;;;;;5.90;4.20;;;;;;;17.40;68.72;99549.06;7250467;40;20246;31
2023/09/06 05:49:51;;;;;;;5.00;4.10;;;;;;;17.44;68.55;99549.50;7291207;39;20235;31
2023/09/06 05:55:13;;;;;;;8.00;4.53;;;;;;;17.49;67.88;99549.72;7281463;40;20305;31
2023/09/06 06:06:26;;;;;;;4.60;3.80;;;;;;;17.79;67.18;99553.03;7168165;40;20321;31
2023/09/06 06:12:03;;;;;;;6.60;3.90;;;;;;;17.94;66.39;99557.31;7180073;40;20321;31
2023/09/06 06:17:38;;;;;;;5.25;3.65;;;;;;;18.08;66.53;99549.16;7229862;40;20257;31
2023/09/06 06:28:18;;;;;;;6.13;4.13;;;;;;;18.40;66.56;99564.72;7211755;40;21077;31
2023/09/06 06:33:59;;;;;;;4.35;3.70;;;;;;;18.61;65.04;99555.53;7225965;40;20246;31
2023/09/06 06:39:18;;;;;;;5.43;3.90;;;;;;;18.80;65.52;99552.81;7243711;39;20240;31
2023/09/06 06:44:39;;;;;;;4.97;3.73;;;;;;;18.98;65.60;99560.38;7281788;40;20854;31
2023/09/06 06:50:13;;;;;;;6.27;3.77;;;;;;;19.19;65.70;99567.47;7256409;40;20261;31
2023/09/06 06:55:50;;;;;;;4.00;3.60;;;;;;;19.39;65.25;99567.44;7310286;39;20235;31
2023/09/06 07:01:10;;;;;;;6.10;3.60;;;;;;;19.62;64.40;99568.66;7287984;40;20282;31
2023/09/06 07:11:51;;;;;;;6.50;3.65;;;;;;;20.02;63.19;99563.00;7288574;40;21311;31
2023/09/06 07:22:32;;;;;;;5.23;3.70;;;;;;;20.32;60.74;99568.75;7320841;39;21077;31
2023/09/06 07:33:25;;;;;;;4.10;3.70;;;;;;;20.59;60.93;99565.63;7368055;39;20247;31
2023/09/06 07:39:00;;;;;;;4.10;3.37;;;;;;;20.75;61.61;99564.25;7342018;39;20262;31
2023/09/06 07:44:50;;;;;;;4.00;3.60;;;;;;;20.87;59.52;99575.31;7200006;39;20267;31
2023/09/06 07:50:24;;;;;;;4.53;3.55;;;;;;;20.91;59.42;99568.31;7246592;40;21066;31
2023/09/06 07:55:59;;;;;;;4.80;3.93;;;;;;;21.04;59.08;99573.69;7236945;40;20261;31
2023/09/06 08:01:33;;;;;;;5.07;3.72;;;;;;;21.17;59.32;99583.72;7178320;40;20247;31
2023/09/06 08:06:56;;;;;;;5.10;4.00;;;;;;;21.39;58.99;99585.81;7189877;40;20257;31
2023/09/06 08:12:31;;;;;;;6.70;4.06;;;;;;;21.43;58.88;99595.25;7219979;40;20355;31
2023/09/06 08:18:08;;;;;;;3.90;3.47;;;;;;;21.52;58.46;99585.66;7203936;40;20242;31
2023/09/06 08:23:26;;;;;;;4.45;3.47;;;;;;;21.65;57.36;99592.91;7211478;40;21182;31
2023/09/06 08:29:01;;;;;;;5.20;3.75;;;;;;;21.79;58.41;99594.44;7280208;39;20240;31
2023/09/06 08:34:36;;;;;;;4.95;3.62;;;;;;;21.94;57.32;99597.66;7316889;39;20404;31
2023/09/06 08:40:12;;;;;;;5.03;4.12;;;;;;;22.19;57.65;99599.47;7257702;40;20241;31
2023/09/06 08:45:47;;;;;;;7.70;4.30;;;;;;;22.33;56.14;99592.72;7226648;40;20277;31
2023/09/06 08:51:23;;;;;;;5.35;4.00;;;;;;;22.48;56.92;99590.37;7218669;40;20343;31
2023/09/06 09:02:10;;;;;;;4.60;3.60;;;;;;;22.77;55.95;99594.19;7273072;40;20272;31
2023/09/06 09:07:45;;;;;;;5.37;3.75;;;;;;;22.87;55.54;99591.69;7219649;40;20341;31
2023/09/06 09:13:20;;;;;;;4.10;3.55;;;;;;;23.10;54.83;99594.47;7200150;40;20246;31
2023/09/06 09:18:56;;;;;;;6.22;3.58;;;;;;;23.35;55.27;99584.06;7236647;40;20320;31
2023/09/06 09:24:41;;;;;;;5.22;3.87;;;;;;;23.51;53.99;99595.47;7254487;40;20304;31
2023/09/06 09:30:15;;;;;;;4.85;3.47;;;;;;;23.75;54.53;99589.69;7288615;39;20317;31
2023/09/06 09:35:50;;;;;;;4.85;3.65;;;;;;;23.92;54.34;99592.50;7279012;40;20272;31
2023/09/06 09:46:41;;;;;;;6.40;4.00;;;;;;;24.33;53.12;99585.94;7257005;40;21100;31
2023/09/06 09:52:02;;;;;;;6.27;3.70;;;;;;;24.52;51.76;99581.91;7322906;39;20244;31
2023/09/06 09:57:39;;;;;;;4.38;3.72;;;;;;;24.62;52.06;99572.94;7312040;39;20275;31
2023/09/06 10:03:15;;;;;;;5.10;3.55;;;;;;;24.85;51.54;99580.25;7278134;40;20380;31
2023/09/06 10:08:51;;;;;;;5.22;3.60;;;;;;;25.12;50.94;99587.66;7245661;40;20234;31
2023/09/06 10:14:26;;;;;;;6.13;4.20;;;;;;;25.28;50.71;99579.59;7240695;40;20306;31
2023/09/06 10:20:04;;;;;;;4.45;3.85;;;;;;;25.42;49.98;99579.00;7208273;40;20277;31
2023/09/06 10:25:39;;;;;;;4.00;3.60;;;;;;;25.57;49.89;99578.41;7208935;40;20268;31
2023/09/06 10:31:11;;;;;;;7.90;3.80;;;;;;;25.77;50.24;99580.59;7247982;40;20241;31
2023/09/06 10:36:47;;;;;;;5.93;3.70;;;;;;;25.92;49.48;99576.13;7241038;40;20264;31
2023/09/06 10:42:45;;;;;;;5.75;3.83;;;;;;;26.14;49.07;99580.81;7246858;40;20260;31
2023/09/06 10:48:23;;;;;;;6.22;3.48;;;;;;;26.25;49.32;99577.09;7296558;39;20245;31
2023/09/06 10:54:02;;;;;;;5.93;4.30;;;;;;;26.61;48.97;99565.31;7299755;39;20247;31
2023/09/06 10:59:23;;;;;;;5.15;4.15;;;;;;;26.73;48.98;99565.97;7360187;39;20236;31
2023/09/06 11:05:05;;;;;;;8.20;4.10;;;;;;;26.93;48.73;99567.28;7339871;39;20345;31
2023/09/06 11:10:40;;;;;;;5.30;3.84;;;;;;;26.96;47.66;99559.28;7248809;40;20428;31
2023/09/06 11:16:18;;;;;;;6.02;4.10;;;;;;;27.00;46.99;99557.66;7204453;40;20257;31
2023/09/06 11:21:53;;;;;;;6.15;4.05;;;;;;;27.10;47.98;99559.69;7215014;40;20265;31
2023/09/06 11:27:38;;;;;;;5.25;4.03;;;;;;;27.30;46.86;99549.56;7227381;40;20447;31
2023/09/06 11:33:11;;;;;;;7.15;3.90;;;;;;;27.55;47.05;99532.31;7037201;39;20334;31
2023/09/06 11:38:49;;;;;;;5.50;3.90;;;;;;;27.58;46.67;99540.09;7223768;40;20494;31
2023/09/06 11:44:26;;;;;;;6.45;4.10;;;;;;;27.70;47.67;99535.16;7281452;39;20409;31
2023/09/06 11:49:59;;;;;;;6.25;4.00;;;;;;;27.67;46.31;99524.62;7222754;40;20343;31
2023/09/06 11:55:33;;;;;;;6.47;3.92;;;;;;;27.89;47.43;99537.44;7193546;40;20246;31
2023/09/06 12:01:10;;;;;;;5.28;4.20;;;;;;;28.09;46.23;99531.97;7136007;40;20396;31
2023/09/06 12:06:54;;;;;;;;;;;;;;;;;;;;;
2023/09/06 12:12:22;;;;;;;5.28;3.45;;;;;;;28.29;44.60;99506.28;7177122;40;20280;31
2023/09/06 12:23:00;;;;;;;4.80;4.00;;;;;;;28.54;44.11;99496.03;7293843;39;21112;31
2023/09/06 12:28:35;;;;;;;3.90;3.50;;;;;;;28.60;43.93;99486.62;7329162;39;20263;31
2023/09/06 12:33:55;;;;;;;6.30;3.70;;;;;;;28.67;44.50;99481.59;7308722;39;20356;31
2023/09/06 12:39:33;;;;;;;6.05;3.50;;;;;;;28.76;42.88;99481.09;7282057;40;20255;31
2023/09/06 12:44:53;;;;;;;5.70;3.50;;;;;;;28.87;44.66;99471.66;7247761;40;20242;31
2023/09/06 12:50:28;;;;;;;6.34;4.12;;;;;;;28.94;42.49;99472.19;7250921;39;20826;31
2023/09/06 12:56:00;;;;;;;4.65;3.58;;;;;;;29.07;42.79;99463.28;7259880;40;20738;31
2023/09/06 13:01:16;;;;;;;5.85;3.75;;;;;;;29.14;42.55;99466.56;7255384;40;20245;31
2023/09/06 13:11:57;;;;;;;6.10;3.80;;;;;;;29.21;42.38;99456.03;7299136;39;20287;31
2023/09/06 13:22:37;;;;;;;6.75;3.60;;;;;;;29.25;41.96;99445.19;7279898;39;20249;31
2023/09/06 13:33:18;;;;;;;6.47;3.50;;;;;;;29.41;40.09;99444.87;7276485;39;20381;31
2023/09/06 13:38:38;;;;;;;4.00;3.40;;;;;;;29.53;40.95;99450.13;7297862;40;20423;31
2023/09/06 13:49:20;;;;;;;4.72;3.35;;;;;;;29.26;41.13;99439.34;7314327;39;21111;31
2023/09/06 13:54:40;;;;;;;7.05;3.15;;;;;;;29.27;40.94;99432.66;7301914;39;20290;31
2023/09/06 14:00:16;;;;;;;4.85;3.47;;;;;;;29.36;39.95;99431.00;7297916;40;20234;31
2023/09/06 14:05:52;;;;;;;3.25;2.85;;;;;;;29.38;40.82;99423.22;7275820;40;20263;31
2023/09/06 14:11:27;;;;;;;7.46;3.88;;;;;;;29.53;40.58;99423.16;7198949;40;20344;31
2023/09/06 14:16:47;;;;;;;4.30;3.15;;;;;;;29.51;40.85;99417.06;7138470;40;20873;31
2023/09/06 14:22:33;;;;;;;;;;;;;;;;;;;;;
2023/09/06 14:27:59;;;;;;;6.12;3.30;;;;;;;29.59;41.04;99407.28;7170183;40;20262;31
2023/09/06 14:33:19;;;;;;;4.25;2.90;;;;;;;29.54;39.77;99399.81;7235335;40;20245;31
2023/09/06 14:38:54;;;;;;;7.18;3.25;;;;;;;29.49;39.64;99394.28;7231991;39;20260;31
2023/09/06 14:44:16;;;;;;;4.90;3.55;;;;;;;29.49;39.71;99397.03;7282176;39;20307;31
2023/09/06 14:49:50;;;;;;;5.26;3.08;;;;;;;29.59;40.21;99392.56;7311323;39;20247;31
2023/09/06 14:55:25;;;;;;;4.00;3.20;;;;;;;29.58;39.39;99390.87;7267082;40;20374;31
2023/09/06 15:00:44;;;;;;;3.70;3.10;;;;;;;29.50;39.61;99392.31;7218043;40;20261;31
2023/09/06 15:06:20;;;;;;;5.12;2.85;;;;;;;29.53;40.17;99384.25;7251487;39;20439;31
2023/09/06 15:11:54;;;;;;;4.83;2.80;;;;;;;29.49;40.34;99383.16;7236600;40;20245;31
2023/09/06 15:17:30;;;;;;;4.90;3.30;;;;;;;29.44;39.69;99376.81;7243328;40;20498;31
2023/09/06 15:22:50;;;;;;;3.80;2.97;;;;;;;29.45;39.92;99379.28;7238225;40;20258;31
2023/09/06 15:28:26;;;;;;;3.42;3.00;;;;;;;29.51;40.95;99383.72;7220542;40;20292;31
2023/09/06 15:34:03;;;;;;;3.67;2.80;;;;;;;29.49;39.94;99371.22;7255795;39;20874;31
2023/09/06 15:39:36;;;;;;;4.05;2.90;;;;;;;29.51;41.03;99375.37;7228227;40;20254;31
2023/09/06 15:45:13;;;;;;;4.70;2.80;;;;;;;29.49;40.55;99374.00;7228973;40;21088;31
2023/09/06 15:55:38;;;;;;;3.30;2.72;;;;;;;29.12;40.23;99368.87;7244743;40;20491;31
2023/09/06 16:06:18;;;;;;;7.30;2.80;;;;;;;28.88;41.01;99354.78;7311453;39;20271;31
2023/09/06 16:11:37;;;;;;;4.28;2.47;;;;;;;28.74;41.15;99355.66;7344687;39;20301;31
2023/09/06 16:17:12;;;;;;;3.28;2.58;;;;;;;28.61;42.53;99348.72;7314965;39;20259;31
2023/09/06 16:27:52;;;;;;;4.93;2.50;;;;;;;28.45;42.67;99347.06;7297640;39;21179;31
2023/09/06 16:33:13;;;;;;;4.30;2.60;;;;;;;28.35;42.62;99350.69;7239857;40;20342;31
2023/09/06 16:38:33;;;;;;;5.20;2.55;;;;;;;28.27;43.09;99356.81;7280672;39;20264;31
2023/09/06 16:44:09;;;;;;;3.67;2.58;;;;;;;28.13;44.49;99344.59;7302847;40;20415;31
2023/09/06 16:49:30;;;;;;;3.85;2.50;;;;;;;28.06;43.75;99344.84;7268492;40;20249;31
2023/09/06 16:54:50;;;;;;;2.67;2.40;;;;;;;28.02;43.99;99349.28;7251921;40;20269;31
2023/09/06 17:05:31;;;;;;;4.30;2.62;;;;;;;27.88;45.36;99341.78;7323428;39;21099;31
2023/09/06 17:16:09;;;;;;;3.00;2.60;;;;;;;27.64;45.70;99352.59;7322506;39;21180;31
2023/09/06 17:21:46;;;;;;;3.36;2.90;;;;;;;27.58;47.23;99350.91;7216406;40;20269;31
2023/09/06 17:27:21;;;;;;;2.90;2.60;;;;;;;27.40;47.93;99351.38;7211556;40;20273;31
2023/09/06 17:38:05;;;;;;;3.85;2.75;;;;;;;26.95;53.17;99352.00;7273940;39;20291;31
2023/09/06 17:43:37;;;;;;;4.78;2.80;;;;;;;26.75;53.42;99355.47;7266210;40;20218;31
2023/09/06 17:49:12;;;;;;;3.80;2.68;;;;;;;26.56;53.77;99355.09;7215445;40;20400;31
2023/09/06 17:54:49;;;;;;;3.73;3.00;;;;;;;26.23;54.76;99358.19;7178460;40;20246;31
2023/09/06 18:00:15;;;;;;;5.25;2.95;;;;;;;25.95;54.54;99367.56;7198595;40;20312;31
2023/09/06 18:05:54;;;;;;;4.47;4.03;;;;;;;25.66;56.18;99367.03;7207296;40;20246;31
2023/09/06 18:11:25;;;;;;;4.72;3.33;;;;;;;25.44;56.02;99374.47;7204435;40;20244;31
2023/09/06 18:17:01;;;;;;;4.35;3.10;;;;;;;25.23;55.94;99384.41;7232586;40;20358;31
2023/09/06 18:27:40;;;;;;;3.05;2.75;;;;;;;24.87;55.93;99387.81;7196299;40;21146;31
2023/09/06 18:33:00;;;;;;;6.75;3.15;;;;;;;24.69;56.42;99391.69;7222210;40;20254;31
2023/09/06 18:38:35;;;;;;;6.10;3.08;;;;;;;24.47;56.01;99388.03;7288789;39;20248;31
2023/09/06 18:44:12;;;;;;;6.50;3.10;;;;;;;24.32;57.24;99399.63;7013719;40;20238;31
2023/09/06 18:49:36;;;;;;;4.70;2.90;;;;;;;24.23;55.60;99399.22;7244003;40;20268;31
2023/09/06 18:54:56;;;;;;;3.25;2.90;;;;;;;24.16;55.27;99400.47;7265380;39;20244;31
2023/09/06 19:00:33;;;;;;;5.07;2.87;;;;;;;23.99;56.50;99414.22;7331612;39;20308;31
2023/09/06 19:11:23;;;;;;;3.00;2.70;;;;;;;23.75;56.00;99418.16;7285132;39;20276;31
2023/09/06 19:17:00;;;;;;;3.20;2.80;;;;;;;23.67;56.68;99413.03;7304221;39;20308;31
2023/09/06 19:27:39;;;;;;;2.90;2.67;;;;;;;23.57;54.90;99412.84;7325731;39;21209;31
2023/09/06 19:32:59;;;;;;;3.95;2.90;;;;;;;23.63;55.81;99418.22;7257356;40;20256;31
2023/09/06 19:38:35;;;;;;;3.40;3.10;;;;;;;23.56;55.00;99414.78;7280158;39;20856;31
2023/09/06 19:43:56;;;;;;;4.37;3.15;;;;;;;23.42;55.81;99421.63;7241795;40;20346;31
2023/09/06 19:54:37;;;;;;;3.00;2.70;;;;;;;23.13;56.75;99417.13;7280877;39;20367;31
2023/09/06 20:05:01;;;;;;;3.55;2.90;;;;;;;22.99;56.16;99422.09;7364008;39;21440;31
2023/09/06 20:10:36;;;;;;;5.80;2.87;;;;;;;22.83;56.52;99425.53;7383623;39;20317;31
2023/09/06 20:21:18;;;;;;;3.60;2.60;;;;;;;22.77;56.88;99427.34;7359802;39;21014;31
2023/09/06 20:26:55;;;;;;;4.72;2.90;;;;;;;22.78;55.98;99433.69;7312950;39;20312;31
2023/09/06 20:32:15;;;;;;;4.60;2.83;;;;;;;22.78;55.78;99430.94;7325881;39;20259;31
2023/09/06 20:37:35;;;;;;;3.65;2.80;;;;;;;22.91;55.33;99430.69;7340972;39;20248;31
2023/09/06 20:43:12;;;;;;;5.97;3.10;;;;;;;22.90;55.87;99431.78;7331094;39;20502;31
2023/09/06 20:48:33;;;;;;;3.12;2.80;;;;;;;22.90;55.23;99437.28;7304135;39;20260;31
2023/09/06 20:53:53;;;;;;;3.17;2.55;;;;;;;22.82;56.46;99435.69;7305457;39;20251;31
2023/09/06 21:04:34;;;;;;;3.12;2.83;;;;;;;22.87;56.43;99430.31;7319086;39;20336;31
2023/09/06 21:15:14;;;;;;;3.84;3.20;;;;;;;22.88;55.34;99437.50;7318105;39;20276;31
2023/09/06 21:21:01;;;;;;;3.78;3.15;;;;;;;22.98;56.05;99434.16;7279146;40;20237;31
2023/09/06 21:31:41;;;;;;;4.40;3.30;;;;;;;23.05;54.86;99442.25;7298846;39;20266;31
2023/09/06 21:37:19;;;;;;;4.72;3.35;;;;;;;23.04;55.23;99441.41;7258383;40;20240;31
2023/09/06 21:42:59;;;;;;;4.25;3.28;;;;;;;23.08;55.12;99439.03;7201155;40;20241;31
2023/09/06 21:48:36;;;;;;;5.35;3.17;;;;;;;23.08;54.38;99453.59;7202251;40;20250;31
2023/09/06 21:59:16;;;;;;;6.00;3.10;;;;;;;23.08;55.13;99447.28;7280634;39;21098;31
2023/09/06 22:04:36;;;;;;;3.90;3.37;;;;;;;23.11;54.46;99447.66;7252523;40;20781;31
2023/09/06 22:15:23;;;;;;;5.95;3.40;;;;;;;22.99;55.45;99455.09;7275616;40;20272;31
2023/09/06 22:31:28;;;;;;;3.90;3.10;;;;;;;22.77;54.92;99443.03;7346365;38;9842675;31
2023/09/06 22:42:03;;;;;;;4.36;3.42;;;;;;;22.75;55.06;99448.75;7408326;39;20269;31
2023/09/06 22:47:40;;;;;;;4.12;3.14;;;;;;;22.72;55.34;99451.97;7325019;39;20236;31
2023/09/06 22:53:02;;;;;;;6.50;3.20;;;;;;;22.66;55.21;99452.87;7308518;39;20263;31
2023/09/06 22:58:22;;;;;;;3.92;3.40;;;;;;;22.50;56.30;99452.75;7385866;39;20443;31
2023/09/06 23:09:06;;;;;;;5.55;3.22;;;;;;;22.34;56.03;99455.13;7358772;39;20270;31
2023/09/06 23:14:39;;;;;;;4.43;3.10;;;;;;;22.36;56.79;99453.00;7389100;39;20240;31
2023/09/06 23:20:19;;;;;;;4.62;3.50;;;;;;;22.43;56.39;99461.94;7367149;39;20318;31
2023/09/06 23:25:52;;;;;;;5.00;3.40;;;;;;;22.45;55.96;99456.22;7344402;39;20385;31
2023/09/06 23:31:25;;;;;;;3.30;3.00;;;;;;;22.47;55.86;99445.81;7315334;39;20368;31
2023/09/06 23:36:45;;;;;;;4.00;3.48;;;;;;;22.46;56.49;99453.25;7243970;40;20319;31
2023/09/06 23:42:21;;;;;;;3.95;3.20;;;;;;;22.42;56.55;99452.03;7249377;40;20332;31
2023/09/06 23:47:43;;;;;;;4.22;3.55;;;;;;;22.41;56.77;99455.88;7263086;40;20240;31
2023/09/06 23:53:18;;;;;;;5.90;3.50;;;;;;;22.30;56.52;99459.41;7288519;39;20270;31
2023/09/06 23:58:53;;;;;;;5.12;3.42;;;;;;;22.25;56.71;99458.44;7258516;39;20252;31
